sensor_id;sensor_type;location;lat;lon;timestamp;pressure;altitude;pressure_sealevel;temperature
38114;BMP180;23926;53.222;6.354;2023-06-14T00:00:32;101719.00;;;19.70
38114;BMP180;23926;53.222;6.354;2023-06-14T00:02:59;101719.00;;;19.80
38114;BMP180;23926;53.222;6.354;2023-06-14T00:05:25;101712.00;;;19.70
38114;BMP180;23926;53.222;6.354;2023-06-14T00:07:51;101707.00;;;19.70
38114;BMP180;23926;53.222;6.354;2023-06-14T00:10:18;101729.00;;;19.70
38114;BMP180;23926;53.222;6.354;2023-06-14T00:12:44;101707.00;;;19.60
38114;BMP180;23926;53.222;6.354;2023-06-14T00:15:09;101710.00;;;19.60
38114;BMP180;23926;53.222;6.354;2023-06-14T00:17:35;101711.00;;;19.50
38114;BMP180;23926;53.222;6.354;2023-06-14T00:20:03;101706.00;;;19.50
38114;BMP180;23926;53.222;6.354;2023-06-14T00:22:32;101704.00;;;19.40
38114;BMP180;23926;53.222;6.354;2023-06-14T00:24:58;101695.00;;;19.40
38114;BMP180;23926;53.222;6.354;2023-06-14T00:27:23;101709.00;;;19.30
38114;BMP180;23926;53.222;6.354;2023-06-14T00:29:49;101697.00;;;19.40
38114;BMP180;23926;53.222;6.354;2023-06-14T00:32:15;101709.00;;;19.40
38114;BMP180;23926;53.222;6.354;2023-06-14T00:34:40;101702.00;;;19.30
38114;BMP180;23926;53.222;6.354;2023-06-14T00:37:06;101716.00;;;19.30
38114;BMP180;23926;53.222;6.354;2023-06-14T00:39:31;101712.00;;;19.30
38114;BMP180;23926;53.222;6.354;2023-06-14T00:41:57;101707.00;;;19.30
38114;BMP180;23926;53.222;6.354;2023-06-14T00:44:23;101715.00;;;19.20
38114;BMP180;23926;53.222;6.354;2023-06-14T00:46:49;101709.00;;;19.30
38114;BMP180;23926;53.222;6.354;2023-06-14T00:49:15;101709.00;;;19.20
38114;BMP180;23926;53.222;6.354;2023-06-14T00:51:42;101716.00;;;19.10
38114;BMP180;23926;53.222;6.354;2023-06-14T00:54:07;101679.00;;;19.10
38114;BMP180;23926;53.222;6.354;2023-06-14T00:56:36;101702.00;;;19.00
38114;BMP180;23926;53.222;6.354;2023-06-14T00:59:02;101676.00;;;18.90
38114;BMP180;23926;53.222;6.354;2023-06-14T01:01:28;101713.00;;;18.90
38114;BMP180;23926;53.222;6.354;2023-06-14T01:03:53;101708.00;;;18.90
38114;BMP180;23926;53.222;6.354;2023-06-14T01:06:40;101715.00;;;18.80
38114;BMP180;23926;53.222;6.354;2023-06-14T01:12:15;101706.00;;;18.80
38114;BMP180;23926;53.222;6.354;2023-06-14T01:14:42;101721.00;;;18.80
38114;BMP180;23926;53.222;6.354;2023-06-14T01:17:08;101722.00;;;18.80
38114;BMP180;23926;53.222;6.354;2023-06-14T01:19:41;101712.00;;;18.80
38114;BMP180;23926;53.222;6.354;2023-06-14T01:22:08;101706.00;;;18.80
38114;BMP180;23926;53.222;6.354;2023-06-14T01:24:34;101718.00;;;18.70
38114;BMP180;23926;53.222;6.354;2023-06-14T01:27:00;101714.00;;;18.60
38114;BMP180;23926;53.222;6.354;2023-06-14T01:29:28;101704.00;;;18.70
38114;BMP180;23926;53.222;6.354;2023-06-14T01:31:59;101715.00;;;18.60
38114;BMP180;23926;53.222;6.354;2023-06-14T01:34:25;101706.00;;;18.60
38114;BMP180;23926;53.222;6.354;2023-06-14T01:36:51;101700.00;;;18.50
38114;BMP180;23926;53.222;6.354;2023-06-14T01:39:17;101710.00;;;18.50
38114;BMP180;23926;53.222;6.354;2023-06-14T01:41:44;101715.00;;;18.40
38114;BMP180;23926;53.222;6.354;2023-06-14T01:44:12;101716.00;;;18.50
38114;BMP180;23926;53.222;6.354;2023-06-14T01:46:38;101698.00;;;18.40
38114;BMP180;23926;53.222;6.354;2023-06-14T01:49:03;101711.00;;;18.40
38114;BMP180;23926;53.222;6.354;2023-06-14T01:51:29;101715.00;;;18.30
38114;BMP180;23926;53.222;6.354;2023-06-14T01:53:54;101714.00;;;18.40
38114;BMP180;23926;53.222;6.354;2023-06-14T01:56:20;101727.00;;;18.30
38114;BMP180;23926;53.222;6.354;2023-06-14T01:58:46;101722.00;;;18.40
38114;BMP180;23926;53.222;6.354;2023-06-14T02:01:13;101689.00;;;18.30
38114;BMP180;23926;53.222;6.354;2023-06-14T02:03:41;101724.00;;;18.30
38114;BMP180;23926;53.222;6.354;2023-06-14T02:06:07;101718.00;;;18.30
38114;BMP180;23926;53.222;6.354;2023-06-14T02:08:33;101733.00;;;18.20
38114;BMP180;23926;53.222;6.354;2023-06-14T02:10:58;101688.00;;;18.10
38114;BMP180;23926;53.222;6.354;2023-06-14T02:13:23;101703.00;;;18.20
38114;BMP180;23926;53.222;6.354;2023-06-14T02:15:49;101697.00;;;18.10
38114;BMP180;23926;53.222;6.354;2023-06-14T02:18:20;101712.00;;;18.10
38114;BMP180;23926;53.222;6.354;2023-06-14T02:20:45;101721.00;;;18.10
38114;BMP180;23926;53.222;6.354;2023-06-14T02:23:10;101706.00;;;18.10
38114;BMP180;23926;53.222;6.354;2023-06-14T02:25:36;101694.00;;;18.00
38114;BMP180;23926;53.222;6.354;2023-06-14T02:28:01;101712.00;;;18.10
38114;BMP180;23926;53.222;6.354;2023-06-14T02:30:26;101701.00;;;18.00
38114;BMP180;23926;53.222;6.354;2023-06-14T02:32:52;101716.00;;;17.90
38114;BMP180;23926;53.222;6.354;2023-06-14T02:35:18;101715.00;;;17.90
38114;BMP180;23926;53.222;6.354;2023-06-14T02:37:45;101716.00;;;17.90
38114;BMP180;23926;53.222;6.354;2023-06-14T02:40:11;101718.00;;;17.80
38114;BMP180;23926;53.222;6.354;2023-06-14T02:42:37;101716.00;;;17.90
38114;BMP180;23926;53.222;6.354;2023-06-14T02:45:02;101717.00;;;17.80
38114;BMP180;23926;53.222;6.354;2023-06-14T02:47:29;101710.00;;;17.80
38114;BMP180;23926;53.222;6.354;2023-06-14T02:49:55;101703.00;;;17.70
38114;BMP180;23926;53.222;6.354;2023-06-14T02:52:20;101724.00;;;17.70
38114;BMP180;23926;53.222;6.354;2023-06-14T02:54:47;101723.00;;;17.70
38114;BMP180;23926;53.222;6.354;2023-06-14T02:57:12;101732.00;;;17.70
38114;BMP180;23926;53.222;6.354;2023-06-14T02:59:38;101717.00;;;17.70
38114;BMP180;23926;53.222;6.354;2023-06-14T03:02:03;101716.00;;;17.60
38114;BMP180;23926;53.222;6.354;2023-06-14T03:04:29;101717.00;;;17.60
38114;BMP180;23926;53.222;6.354;2023-06-14T03:06:54;101726.00;;;17.60
38114;BMP180;23926;53.222;6.354;2023-06-14T03:09:20;101724.00;;;17.60
38114;BMP180;23926;53.222;6.354;2023-06-14T03:11:46;101727.00;;;17.60
38114;BMP180;23926;53.222;6.354;2023-06-14T03:14:11;101730.00;;;17.60
38114;BMP180;23926;53.222;6.354;2023-06-14T03:16:38;101736.00;;;17.50
38114;BMP180;23926;53.222;6.354;2023-06-14T03:19:04;101715.00;;;17.50
38114;BMP180;23926;53.222;6.354;2023-06-14T03:21:29;101738.00;;;17.50
38114;BMP180;23926;53.222;6.354;2023-06-14T03:23:55;101735.00;;;17.50
38114;BMP180;23926;53.222;6.354;2023-06-14T03:26:21;101737.00;;;17.50
38114;BMP180;23926;53.222;6.354;2023-06-14T03:28:47;101742.00;;;17.50
38114;BMP180;23926;53.222;6.354;2023-06-14T03:31:16;101734.00;;;17.50
38114;BMP180;23926;53.222;6.354;2023-06-14T03:33:41;101730.00;;;17.50
38114;BMP180;23926;53.222;6.354;2023-06-14T03:36:07;101738.00;;;17.50
38114;BMP180;23926;53.222;6.354;2023-06-14T03:38:33;101747.00;;;17.50
38114;BMP180;23926;53.222;6.354;2023-06-14T03:40:59;101740.00;;;17.50
38114;BMP180;23926;53.222;6.354;2023-06-14T03:43:24;101749.00;;;17.50
38114;BMP180;23926;53.222;6.354;2023-06-14T03:45:50;101747.00;;;17.40
38114;BMP180;23926;53.222;6.354;2023-06-14T03:48:16;101734.00;;;17.40
38114;BMP180;23926;53.222;6.354;2023-06-14T03:50:41;101747.00;;;17.40
38114;BMP180;23926;53.222;6.354;2023-06-14T03:53:08;101742.00;;;17.40
38114;BMP180;23926;53.222;6.354;2023-06-14T03:55:33;101751.00;;;17.50
38114;BMP180;23926;53.222;6.354;2023-06-14T03:57:59;101756.00;;;17.50
38114;BMP180;23926;53.222;6.354;2023-06-14T04:00:25;101745.00;;;17.50
38114;BMP180;23926;53.222;6.354;2023-06-14T04:02:50;101772.00;;;17.50
38114;BMP180;23926;53.222;6.354;2023-06-14T04:05:15;101756.00;;;17.60
38114;BMP180;23926;53.222;6.354;2023-06-14T04:07:45;101770.00;;;17.50
38114;BMP180;23926;53.222;6.354;2023-06-14T04:10:15;101760.00;;;17.50
38114;BMP180;23926;53.222;6.354;2023-06-14T04:12:42;101767.00;;;17.60
38114;BMP180;23926;53.222;6.354;2023-06-14T04:15:08;101764.00;;;17.70
38114;BMP180;23926;53.222;6.354;2023-06-14T04:17:34;101783.00;;;17.70
38114;BMP180;23926;53.222;6.354;2023-06-14T04:20:00;101783.00;;;17.70
38114;BMP180;23926;53.222;6.354;2023-06-14T04:22:26;101761.00;;;17.80
38114;BMP180;23926;53.222;6.354;2023-06-14T04:24:56;101774.00;;;17.80
38114;BMP180;23926;53.222;6.354;2023-06-14T04:27:22;101791.00;;;17.90
38114;BMP180;23926;53.222;6.354;2023-06-14T04:29:50;101779.00;;;17.90
38114;BMP180;23926;53.222;6.354;2023-06-14T04:32:23;101780.00;;;18.00
38114;BMP180;23926;53.222;6.354;2023-06-14T04:34:50;101779.00;;;18.00
38114;BMP180;23926;53.222;6.354;2023-06-14T04:37:19;101779.00;;;18.10
38114;BMP180;23926;53.222;6.354;2023-06-14T04:39:46;101791.00;;;18.10
38114;BMP180;23926;53.222;6.354;2023-06-14T04:42:12;101787.00;;;18.10
38114;BMP180;23926;53.222;6.354;2023-06-14T04:44:41;101788.00;;;18.30
38114;BMP180;23926;53.222;6.354;2023-06-14T04:47:06;101779.00;;;18.30
38114;BMP180;23926;53.222;6.354;2023-06-14T04:49:32;101800.00;;;18.30
38114;BMP180;23926;53.222;6.354;2023-06-14T04:51:59;101803.00;;;18.40
38114;BMP180;23926;53.222;6.354;2023-06-14T04:54:26;101802.00;;;18.40
38114;BMP180;23926;53.222;6.354;2023-06-14T04:56:52;101802.00;;;18.50
38114;BMP180;23926;53.222;6.354;2023-06-14T04:59:21;101799.00;;;18.70
38114;BMP180;23926;53.222;6.354;2023-06-14T05:01:48;101810.00;;;18.70
38114;BMP180;23926;53.222;6.354;2023-06-14T05:04:19;101803.00;;;18.80
38114;BMP180;23926;53.222;6.354;2023-06-14T05:06:46;101805.00;;;18.90
38114;BMP180;23926;53.222;6.354;2023-06-14T05:09:15;101816.00;;;19.00
38114;BMP180;23926;53.222;6.354;2023-06-14T05:11:43;101811.00;;;19.10
38114;BMP180;23926;53.222;6.354;2023-06-14T05:14:10;101821.00;;;19.20
38114;BMP180;23926;53.222;6.354;2023-06-14T05:16:35;101812.00;;;19.20
38114;BMP180;23926;53.222;6.354;2023-06-14T05:19:02;101823.00;;;19.30
38114;BMP180;23926;53.222;6.354;2023-06-14T05:21:27;101817.00;;;19.40
38114;BMP180;23926;53.222;6.354;2023-06-14T05:23:53;101833.00;;;19.50
38114;BMP180;23926;53.222;6.354;2023-06-14T05:26:19;101807.00;;;19.60
38114;BMP180;23926;53.222;6.354;2023-06-14T05:28:44;101830.00;;;19.70
38114;BMP180;23926;53.222;6.354;2023-06-14T05:31:10;101829.00;;;19.70
38114;BMP180;23926;53.222;6.354;2023-06-14T05:33:35;101827.00;;;19.70
38114;BMP180;23926;53.222;6.354;2023-06-14T05:36:01;101831.00;;;19.80
38114;BMP180;23926;53.222;6.354;2023-06-14T05:38:27;101826.00;;;19.90
38114;BMP180;23926;53.222;6.354;2023-06-14T05:40:52;101831.00;;;20.00
38114;BMP180;23926;53.222;6.354;2023-06-14T05:43:19;101827.00;;;20.10
38114;BMP180;23926;53.222;6.354;2023-06-14T05:45:44;101830.00;;;20.10
38114;BMP180;23926;53.222;6.354;2023-06-14T05:48:09;101837.00;;;20.20
38114;BMP180;23926;53.222;6.354;2023-06-14T05:50:35;101823.00;;;20.20
38114;BMP180;23926;53.222;6.354;2023-06-14T05:53:00;101831.00;;;20.40
38114;BMP180;23926;53.222;6.354;2023-06-14T05:55:26;101834.00;;;20.50
38114;BMP180;23926;53.222;6.354;2023-06-14T05:57:51;101840.00;;;20.50
38114;BMP180;23926;53.222;6.354;2023-06-14T06:00:17;101841.00;;;20.50
38114;BMP180;23926;53.222;6.354;2023-06-14T06:02:43;101825.00;;;20.70
38114;BMP180;23926;53.222;6.354;2023-06-14T06:05:10;101830.00;;;20.70
38114;BMP180;23926;53.222;6.354;2023-06-14T06:07:37;101848.00;;;20.90
38114;BMP180;23926;53.222;6.354;2023-06-14T06:10:03;101851.00;;;21.00
38114;BMP180;23926;53.222;6.354;2023-06-14T06:12:30;101851.00;;;21.00
38114;BMP180;23926;53.222;6.354;2023-06-14T06:14:55;101825.00;;;21.20
38114;BMP180;23926;53.222;6.354;2023-06-14T06:17:21;101827.00;;;21.20
38114;BMP180;23926;53.222;6.354;2023-06-14T06:19:46;101845.00;;;21.20
38114;BMP180;23926;53.222;6.354;2023-06-14T06:22:12;101862.00;;;21.40
38114;BMP180;23926;53.222;6.354;2023-06-14T06:24:37;101859.00;;;21.40
38114;BMP180;23926;53.222;6.354;2023-06-14T06:27:03;101845.00;;;21.50
38114;BMP180;23926;53.222;6.354;2023-06-14T06:29:29;101852.00;;;21.60
38114;BMP180;23926;53.222;6.354;2023-06-14T06:31:54;101848.00;;;21.60
38114;BMP180;23926;53.222;6.354;2023-06-14T06:34:21;101863.00;;;21.70
38114;BMP180;23926;53.222;6.354;2023-06-14T06:36:46;101865.00;;;21.90
38114;BMP180;23926;53.222;6.354;2023-06-14T06:39:12;101873.00;;;22.00
38114;BMP180;23926;53.222;6.354;2023-06-14T06:41:38;101876.00;;;22.00
38114;BMP180;23926;53.222;6.354;2023-06-14T06:44:06;101886.00;;;22.20
38114;BMP180;23926;53.222;6.354;2023-06-14T06:46:32;101895.00;;;22.30
38114;BMP180;23926;53.222;6.354;2023-06-14T06:48:58;101898.00;;;22.40
38114;BMP180;23926;53.222;6.354;2023-06-14T06:51:23;101887.00;;;22.50
38114;BMP180;23926;53.222;6.354;2023-06-14T06:53:55;101893.00;;;22.50
38114;BMP180;23926;53.222;6.354;2023-06-14T06:56:21;101896.00;;;22.70
38114;BMP180;23926;53.222;6.354;2023-06-14T06:58:49;101904.00;;;22.90
38114;BMP180;23926;53.222;6.354;2023-06-14T07:01:14;101899.00;;;23.00
38114;BMP180;23926;53.222;6.354;2023-06-14T07:03:41;101896.00;;;23.10
38114;BMP180;23926;53.222;6.354;2023-06-14T07:06:06;101900.00;;;23.20
38114;BMP180;23926;53.222;6.354;2023-06-14T07:08:32;101890.00;;;23.40
38114;BMP180;23926;53.222;6.354;2023-06-14T07:10:57;101899.00;;;23.50
38114;BMP180;23926;53.222;6.354;2023-06-14T07:13:22;101890.00;;;23.70
38114;BMP180;23926;53.222;6.354;2023-06-14T07:15:48;101907.00;;;23.80
38114;BMP180;23926;53.222;6.354;2023-06-14T07:18:13;101898.00;;;23.80
38114;BMP180;23926;53.222;6.354;2023-06-14T07:20:39;101906.00;;;23.90
38114;BMP180;23926;53.222;6.354;2023-06-14T07:23:05;101901.00;;;24.00
38114;BMP180;23926;53.222;6.354;2023-06-14T07:25:30;101899.00;;;24.20
38114;BMP180;23926;53.222;6.354;2023-06-14T07:27:56;101911.00;;;24.40
38114;BMP180;23926;53.222;6.354;2023-06-14T07:30:21;101911.00;;;24.50
38114;BMP180;23926;53.222;6.354;2023-06-14T07:32:51;101909.00;;;24.60
38114;BMP180;23926;53.222;6.354;2023-06-14T07:35:17;101922.00;;;24.70
38114;BMP180;23926;53.222;6.354;2023-06-14T07:37:43;101913.00;;;24.70
38114;BMP180;23926;53.222;6.354;2023-06-14T07:40:09;101918.00;;;24.90
38114;BMP180;23926;53.222;6.354;2023-06-14T07:42:35;101920.00;;;25.00
38114;BMP180;23926;53.222;6.354;2023-06-14T07:45:04;101925.00;;;25.10
38114;BMP180;23926;53.222;6.354;2023-06-14T07:47:30;101899.00;;;25.20
38114;BMP180;23926;53.222;6.354;2023-06-14T07:49:55;101912.00;;;25.20
38114;BMP180;23926;53.222;6.354;2023-06-14T07:52:21;101918.00;;;25.30
38114;BMP180;23926;53.222;6.354;2023-06-14T07:54:46;101916.00;;;25.20
38114;BMP180;23926;53.222;6.354;2023-06-14T07:57:12;101917.00;;;25.30
38114;BMP180;23926;53.222;6.354;2023-06-14T07:59:38;101914.00;;;25.30
38114;BMP180;23926;53.222;6.354;2023-06-14T08:02:04;101923.00;;;25.20
38114;BMP180;23926;53.222;6.354;2023-06-14T08:04:29;101910.00;;;25.40
38114;BMP180;23926;53.222;6.354;2023-06-14T08:06:54;101920.00;;;25.40
38114;BMP180;23926;53.222;6.354;2023-06-14T08:09:20;101921.00;;;25.40
38114;BMP180;23926;53.222;6.354;2023-06-14T08:11:45;101920.00;;;25.50
38114;BMP180;23926;53.222;6.354;2023-06-14T08:14:11;101920.00;;;25.70
38114;BMP180;23926;53.222;6.354;2023-06-14T08:16:36;101917.00;;;25.80
38114;BMP180;23926;53.222;6.354;2023-06-14T08:19:02;101932.00;;;25.70
38114;BMP180;23926;53.222;6.354;2023-06-14T08:21:28;101927.00;;;25.80
38114;BMP180;23926;53.222;6.354;2023-06-14T08:23:55;101931.00;;;25.90
38114;BMP180;23926;53.222;6.354;2023-06-14T08:26:20;101923.00;;;26.00
38114;BMP180;23926;53.222;6.354;2023-06-14T08:28:46;101918.00;;;26.10
38114;BMP180;23926;53.222;6.354;2023-06-14T08:31:11;101932.00;;;26.10
38114;BMP180;23926;53.222;6.354;2023-06-14T08:33:38;101935.00;;;26.30
38114;BMP180;23926;53.222;6.354;2023-06-14T08:36:04;101929.00;;;26.30
38114;BMP180;23926;53.222;6.354;2023-06-14T08:38:30;101924.00;;;26.30
38114;BMP180;23926;53.222;6.354;2023-06-14T08:40:57;101930.00;;;26.40
38114;BMP180;23926;53.222;6.354;2023-06-14T08:43:23;101929.00;;;26.60
38114;BMP180;23926;53.222;6.354;2023-06-14T08:45:49;101921.00;;;26.60
38114;BMP180;23926;53.222;6.354;2023-06-14T08:48:19;101930.00;;;26.70
38114;BMP180;23926;53.222;6.354;2023-06-14T08:50:46;101928.00;;;26.60
38114;BMP180;23926;53.222;6.354;2023-06-14T08:53:14;101933.00;;;26.50
38114;BMP180;23926;53.222;6.354;2023-06-14T08:55:45;101927.00;;;26.70
38114;BMP180;23926;53.222;6.354;2023-06-14T08:58:13;101929.00;;;26.80
38114;BMP180;23926;53.222;6.354;2023-06-14T09:00:39;101928.00;;;26.80
38114;BMP180;23926;53.222;6.354;2023-06-14T09:03:08;101922.00;;;27.00
38114;BMP180;23926;53.222;6.354;2023-06-14T09:05:38;101922.00;;;27.10
38114;BMP180;23926;53.222;6.354;2023-06-14T09:08:04;101927.00;;;27.20
38114;BMP180;23926;53.222;6.354;2023-06-14T09:10:31;101924.00;;;27.20
38114;BMP180;23926;53.222;6.354;2023-06-14T09:13:00;101922.00;;;27.30
38114;BMP180;23926;53.222;6.354;2023-06-14T09:15:25;101929.00;;;27.30
38114;BMP180;23926;53.222;6.354;2023-06-14T09:17:51;101923.00;;;27.20
38114;BMP180;23926;53.222;6.354;2023-06-14T09:20:16;101928.00;;;27.20
38114;BMP180;23926;53.222;6.354;2023-06-14T09:22:44;101929.00;;;27.30
38114;BMP180;23926;53.222;6.354;2023-06-14T09:25:09;101939.00;;;27.20
38114;BMP180;23926;53.222;6.354;2023-06-14T09:27:36;101939.00;;;27.30
38114;BMP180;23926;53.222;6.354;2023-06-14T09:30:14;101934.00;;;27.50
38114;BMP180;23926;53.222;6.354;2023-06-14T09:32:39;101948.00;;;27.60
38114;BMP180;23926;53.222;6.354;2023-06-14T09:35:08;101951.00;;;27.60
38114;BMP180;23926;53.222;6.354;2023-06-14T09:37:34;101948.00;;;27.70
38114;BMP180;23926;53.222;6.354;2023-06-14T09:40:00;101946.00;;;27.80
38114;BMP180;23926;53.222;6.354;2023-06-14T09:42:26;101938.00;;;27.70
38114;BMP180;23926;53.222;6.354;2023-06-14T09:44:55;101951.00;;;27.60
38114;BMP180;23926;53.222;6.354;2023-06-14T09:47:22;101942.00;;;27.70
38114;BMP180;23926;53.222;6.354;2023-06-14T09:49:48;101958.00;;;27.80
38114;BMP180;23926;53.222;6.354;2023-06-14T09:52:15;101956.00;;;27.80
38114;BMP180;23926;53.222;6.354;2023-06-14T09:54:42;101952.00;;;27.90
38114;BMP180;23926;53.222;6.354;2023-06-14T09:57:12;101950.00;;;28.10
38114;BMP180;23926;53.222;6.354;2023-06-14T09:59:41;101952.00;;;28.10
38114;BMP180;23926;53.222;6.354;2023-06-14T10:02:30;101946.00;;;28.00
38114;BMP180;23926;53.222;6.354;2023-06-14T10:05:08;101947.00;;;28.10
38114;BMP180;23926;53.222;6.354;2023-06-14T10:07:42;101960.00;;;28.00
38114;BMP180;23926;53.222;6.354;2023-06-14T10:10:09;101952.00;;;27.90
38114;BMP180;23926;53.222;6.354;2023-06-14T10:12:35;101962.00;;;27.90
38114;BMP180;23926;53.222;6.354;2023-06-14T10:15:01;101954.00;;;28.00
38114;BMP180;23926;53.222;6.354;2023-06-14T10:20:06;101947.00;;;28.10
38114;BMP180;23926;53.222;6.354;2023-06-14T10:22:43;101946.00;;;28.10
38114;BMP180;23926;53.222;6.354;2023-06-14T10:25:26;101940.00;;;28.20
38114;BMP180;23926;53.222;6.354;2023-06-14T10:27:52;101944.00;;;28.20
38114;BMP180;23926;53.222;6.354;2023-06-14T10:30:17;101943.00;;;28.20
38114;BMP180;23926;53.222;6.354;2023-06-14T10:33:05;101961.00;;;28.30
38114;BMP180;23926;53.222;6.354;2023-06-14T10:35:31;101950.00;;;28.20
38114;BMP180;23926;53.222;6.354;2023-06-14T10:38:07;101952.00;;;28.30
38114;BMP180;23926;53.222;6.354;2023-06-14T10:40:33;101954.00;;;28.40
38114;BMP180;23926;53.222;6.354;2023-06-14T10:42:59;101943.00;;;28.50
38114;BMP180;23926;53.222;6.354;2023-06-14T10:45:24;101960.00;;;28.50
38114;BMP180;23926;53.222;6.354;2023-06-14T10:47:50;101955.00;;;28.50
38114;BMP180;23926;53.222;6.354;2023-06-14T10:50:27;101943.00;;;28.40
38114;BMP180;23926;53.222;6.354;2023-06-14T10:52:53;101944.00;;;28.40
38114;BMP180;23926;53.222;6.354;2023-06-14T10:55:19;101943.00;;;28.30
38114;BMP180;23926;53.222;6.354;2023-06-14T10:57:54;101942.00;;;28.30
38114;BMP180;23926;53.222;6.354;2023-06-14T11:00:25;101943.00;;;28.20
38114;BMP180;23926;53.222;6.354;2023-06-14T11:05:26;101943.00;;;28.00
38114;BMP180;23926;53.222;6.354;2023-06-14T11:10:58;101927.00;;;28.00
38114;BMP180;23926;53.222;6.354;2023-06-14T11:13:25;101944.00;;;27.90
38114;BMP180;23926;53.222;6.354;2023-06-14T11:15:51;101927.00;;;28.20
38114;BMP180;23926;53.222;6.354;2023-06-14T11:18:18;101929.00;;;28.40
38114;BMP180;23926;53.222;6.354;2023-06-14T11:20:46;101916.00;;;28.60
38114;BMP180;23926;53.222;6.354;2023-06-14T11:23:11;101917.00;;;28.60
38114;BMP180;23926;53.222;6.354;2023-06-14T11:25:37;101921.00;;;28.60
38114;BMP180;23926;53.222;6.354;2023-06-14T11:28:02;101908.00;;;28.40
38114;BMP180;23926;53.222;6.354;2023-06-14T11:30:28;101913.00;;;28.30
38114;BMP180;23926;53.222;6.354;2023-06-14T11:32:57;101915.00;;;28.40
38114;BMP180;23926;53.222;6.354;2023-06-14T11:35:23;101915.00;;;28.30
38114;BMP180;23926;53.222;6.354;2023-06-14T11:37:52;101917.00;;;28.30
38114;BMP180;23926;53.222;6.354;2023-06-14T11:40:17;101896.00;;;28.40
38114;BMP180;23926;53.222;6.354;2023-06-14T11:42:43;101908.00;;;28.10
38114;BMP180;23926;53.222;6.354;2023-06-14T11:45:10;101901.00;;;28.00
38114;BMP180;23926;53.222;6.354;2023-06-14T11:47:37;101917.00;;;28.30
38114;BMP180;23926;53.222;6.354;2023-06-14T11:50:04;101916.00;;;28.50
38114;BMP180;23926;53.222;6.354;2023-06-14T11:52:30;101907.00;;;28.60
38114;BMP180;23926;53.222;6.354;2023-06-14T11:54:56;101913.00;;;29.00
38114;BMP180;23926;53.222;6.354;2023-06-14T11:57:22;101902.00;;;29.10
38114;BMP180;23926;53.222;6.354;2023-06-14T11:59:48;101907.00;;;29.20
38114;BMP180;23926;53.222;6.354;2023-06-14T12:02:15;101909.00;;;29.20
38114;BMP180;23926;53.222;6.354;2023-06-14T12:04:41;101900.00;;;29.20
38114;BMP180;23926;53.222;6.354;2023-06-14T12:07:14;101909.00;;;29.30
38114;BMP180;23926;53.222;6.354;2023-06-14T12:12:20;101896.00;;;29.30
38114;BMP180;23926;53.222;6.354;2023-06-14T12:14:46;101898.00;;;29.30
38114;BMP180;23926;53.222;6.354;2023-06-14T12:17:12;101906.00;;;29.40
38114;BMP180;23926;53.222;6.354;2023-06-14T12:19:45;101906.00;;;29.40
38114;BMP180;23926;53.222;6.354;2023-06-14T12:22:11;101913.00;;;29.50
38114;BMP180;23926;53.222;6.354;2023-06-14T12:24:37;101897.00;;;29.50
38114;BMP180;23926;53.222;6.354;2023-06-14T12:27:06;101901.00;;;29.60
38114;BMP180;23926;53.222;6.354;2023-06-14T12:29:32;101912.00;;;29.70
38114;BMP180;23926;53.222;6.354;2023-06-14T12:31:57;101906.00;;;29.80
38114;BMP180;23926;53.222;6.354;2023-06-14T12:34:23;101916.00;;;29.90
38114;BMP180;23926;53.222;6.354;2023-06-14T12:36:53;101910.00;;;30.00
38114;BMP180;23926;53.222;6.354;2023-06-14T12:39:19;101904.00;;;30.00
38114;BMP180;23926;53.222;6.354;2023-06-14T12:41:46;101909.00;;;30.10
38114;BMP180;23926;53.222;6.354;2023-06-14T12:44:12;101906.00;;;30.20
38114;BMP180;23926;53.222;6.354;2023-06-14T12:46:38;101901.00;;;30.20
38114;BMP180;23926;53.222;6.354;2023-06-14T12:49:05;101907.00;;;30.50
38114;BMP180;23926;53.222;6.354;2023-06-14T12:51:32;101922.00;;;30.70
38114;BMP180;23926;53.222;6.354;2023-06-14T12:53:57;101908.00;;;31.00
38114;BMP180;23926;53.222;6.354;2023-06-14T12:56:23;101919.00;;;31.30
38114;BMP180;23926;53.222;6.354;2023-06-14T12:58:48;101911.00;;;31.40
38114;BMP180;23926;53.222;6.354;2023-06-14T13:01:13;101901.00;;;31.20
38114;BMP180;23926;53.222;6.354;2023-06-14T13:03:39;101900.00;;;31.40
38114;BMP180;23926;53.222;6.354;2023-06-14T13:06:05;101907.00;;;31.30
38114;BMP180;23926;53.222;6.354;2023-06-14T13:08:30;101902.00;;;30.90
38114;BMP180;23926;53.222;6.354;2023-06-14T13:10:56;101907.00;;;30.60
38114;BMP180;23926;53.222;6.354;2023-06-14T13:13:21;101902.00;;;30.30
38114;BMP180;23926;53.222;6.354;2023-06-14T13:15:47;101903.00;;;30.00
38114;BMP180;23926;53.222;6.354;2023-06-14T13:18:14;101907.00;;;29.70
38114;BMP180;23926;53.222;6.354;2023-06-14T13:20:39;101917.00;;;29.60
38114;BMP180;23926;53.222;6.354;2023-06-14T13:23:05;101909.00;;;29.60
38114;BMP180;23926;53.222;6.354;2023-06-14T13:25:36;101912.00;;;29.70
38114;BMP180;23926;53.222;6.354;2023-06-14T13:28:04;101918.00;;;29.90
38114;BMP180;23926;53.222;6.354;2023-06-14T13:30:29;101922.00;;;30.00
38114;BMP180;23926;53.222;6.354;2023-06-14T13:32:55;101914.00;;;30.30
38114;BMP180;23926;53.222;6.354;2023-06-14T13:35:21;101903.00;;;30.50
38114;BMP180;23926;53.222;6.354;2023-06-14T13:37:47;101916.00;;;30.70
38114;BMP180;23926;53.222;6.354;2023-06-14T13:40:12;101908.00;;;30.90
38114;BMP180;23926;53.222;6.354;2023-06-14T13:42:38;101914.00;;;31.20
38114;BMP180;23926;53.222;6.354;2023-06-14T13:45:04;101918.00;;;31.30
38114;BMP180;23926;53.222;6.354;2023-06-14T13:47:32;101916.00;;;31.10
38114;BMP180;23926;53.222;6.354;2023-06-14T13:49:57;101913.00;;;31.00
38114;BMP180;23926;53.222;6.354;2023-06-14T13:52:23;101903.00;;;30.90
38114;BMP180;23926;53.222;6.354;2023-06-14T13:54:49;101904.00;;;30.80
38114;BMP180;23926;53.222;6.354;2023-06-14T13:57:15;101914.00;;;30.70
38114;BMP180;23926;53.222;6.354;2023-06-14T13:59:41;101916.00;;;30.50
38114;BMP180;23926;53.222;6.354;2023-06-14T14:02:06;101911.00;;;30.50
38114;BMP180;23926;53.222;6.354;2023-06-14T14:04:33;101915.00;;;30.60
38114;BMP180;23926;53.222;6.354;2023-06-14T14:07:00;101911.00;;;30.80